sensor_id;sensor_type;location;lat;lon;timestamp;P1;durP1;ratioP1;P2;durP2;ratioP2
2686;SDS011;1353;51.386;7.028;2022-07-05T00:01:09;6.83;;;4.50;;
2686;SDS011;1353;51.386;7.028;2022-07-05T00:03:38;5.50;;;3.60;;
2686;SDS011;1353;51.386;7.028;2022-07-05T00:06:04;5.17;;;4.67;;
2686;SDS011;1353;51.386;7.028;2022-07-05T00:08:31;4.23;;;3.87;;
2686;SDS011;1353;51.386;7.028;2022-07-05T00:10:58;4.70;;;4.23;;
2686;SDS011;1353;51.386;7.028;2022-07-05T00:13:25;4.70;;;4.30;;
2686;SDS011;1353;51.386;7.028;2022-07-05T00:15:52;5.20;;;3.77;;
2686;SDS011;1353;51.386;7.028;2022-07-05T00:18:19;5.07;;;3.90;;
2686;SDS011;1353;51.386;7.028;2022-07-05T00:20:47;4.50;;;4.20;;
2686;SDS011;1353;51.386;7.028;2022-07-05T00:23:13;4.40;;;3.80;;
2686;SDS011;1353;51.386;7.028;2022-07-05T00:25:40;4.73;;;4.30;;
2686;SDS011;1353;51.386;7.028;2022-07-05T00:28:07;4.80;;;4.40;;
2686;SDS011;1353;51.386;7.028;2022-07-05T00:30:33;7.07;;;4.43;;
2686;SDS011;1353;51.386;7.028;2022-07-05T00:33:00;5.20;;;4.67;;
2686;SDS011;1353;51.386;7.028;2022-07-05T00:35:27;4.90;;;4.10;;
2686;SDS011;1353;51.386;7.028;2022-07-05T00:37:55;5.60;;;4.77;;
2686;SDS011;1353;51.386;7.028;2022-07-05T00:40:22;5.40;;;4.70;;
2686;SDS011;1353;51.386;7.028;2022-07-05T00:42:49;5.80;;;5.30;;
2686;SDS011;1353;51.386;7.028;2022-07-05T00:45:16;5.27;;;4.80;;
2686;SDS011;1353;51.386;7.028;2022-07-05T00:47:42;5.07;;;4.57;;
2686;SDS011;1353;51.386;7.028;2022-07-05T00:50:09;4.90;;;4.50;;
2686;SDS011;1353;51.386;7.028;2022-07-05T00:52:36;6.50;;;4.97;;
2686;SDS011;1353;51.386;7.028;2022-07-05T00:55:05;5.20;;;4.80;;
2686;SDS011;1353;51.386;7.028;2022-07-05T00:57:33;5.53;;;5.07;;
2686;SDS011;1353;51.386;7.028;2022-07-05T01:00:00;5.67;;;5.17;;
2686;SDS011;1353;51.386;7.028;2022-07-05T01:02:27;5.30;;;4.90;;
2686;SDS011;1353;51.386;7.028;2022-07-05T01:04:54;5.77;;;5.20;;
2686;SDS011;1353;51.386;7.028;2022-07-05T01:07:21;6.87;;;5.10;;
2686;SDS011;1353;51.386;7.028;2022-07-05T01:09:50;5.33;;;4.87;;
2686;SDS011;1353;51.386;7.028;2022-07-05T01:12:19;9.07;;;4.97;;
2686;SDS011;1353;51.386;7.028;2022-07-05T01:14:45;5.60;;;4.83;;
2686;SDS011;1353;51.386;7.028;2022-07-05T01:17:13;5.23;;;4.30;;
2686;SDS011;1353;51.386;7.028;2022-07-05T01:19:40;9.67;;;4.87;;
2686;SDS011;1353;51.386;7.028;2022-07-05T01:22:09;5.33;;;4.87;;
2686;SDS011;1353;51.386;7.028;2022-07-05T01:24:43;4.50;;;4.20;;
2686;SDS011;1353;51.386;7.028;2022-07-05T01:27:10;6.23;;;5.40;;
2686;SDS011;1353;51.386;7.028;2022-07-05T01:29:37;5.20;;;4.70;;
2686;SDS011;1353;51.386;7.028;2022-07-05T01:32:04;5.10;;;4.60;;
2686;SDS011;1353;51.386;7.028;2022-07-05T01:34:32;5.00;;;4.60;;
2686;SDS011;1353;51.386;7.028;2022-07-05T01:37:03;6.30;;;5.77;;
2686;SDS011;1353;51.386;7.028;2022-07-05T01:39:30;4.87;;;4.33;;
2686;SDS011;1353;51.386;7.028;2022-07-05T01:41:58;5.70;;;4.63;;
2686;SDS011;1353;51.386;7.028;2022-07-05T01:44:25;4.90;;;4.10;;
2686;SDS011;1353;51.386;7.028;2022-07-05T01:46:54;5.30;;;4.83;;
2686;SDS011;1353;51.386;7.028;2022-07-05T01:49:24;5.27;;;4.77;;
2686;SDS011;1353;51.386;7.028;2022-07-05T01:51:54;8.37;;;5.20;;
2686;SDS011;1353;51.386;7.028;2022-07-05T01:54:23;4.70;;;4.40;;
2686;SDS011;1353;51.386;7.028;2022-07-05T01:56:50;5.40;;;4.90;;
2686;SDS011;1353;51.386;7.028;2022-07-05T01:59:18;8.00;;;5.70;;
2686;SDS011;1353;51.386;7.028;2022-07-05T02:01:45;4.60;;;4.20;;
2686;SDS011;1353;51.386;7.028;2022-07-05T02:04:11;6.23;;;4.47;;
2686;SDS011;1353;51.386;7.028;2022-07-05T02:06:41;8.50;;;4.53;;
2686;SDS011;1353;51.386;7.028;2022-07-05T02:09:10;4.40;;;4.10;;
2686;SDS011;1353;51.386;7.028;2022-07-05T02:11:37;5.80;;;4.33;;
2686;SDS011;1353;51.386;7.028;2022-07-05T02:14:03;6.20;;;5.60;;
2686;SDS011;1353;51.386;7.028;2022-07-05T02:16:32;4.83;;;4.43;;
2686;SDS011;1353;51.386;7.028;2022-07-05T02:18:59;5.83;;;4.50;;
2686;SDS011;1353;51.386;7.028;2022-07-05T02:21:26;5.17;;;4.70;;
2686;SDS011;1353;51.386;7.028;2022-07-05T02:23:53;4.43;;;4.03;;
2686;SDS011;1353;51.386;7.028;2022-07-05T02:26:20;4.57;;;4.17;;
2686;SDS011;1353;51.386;7.028;2022-07-05T02:28:47;4.50;;;4.17;;
2686;SDS011;1353;51.386;7.028;2022-07-05T02:31:14;5.43;;;4.67;;
2686;SDS011;1353;51.386;7.028;2022-07-05T02:33:42;4.90;;;4.40;;
2686;SDS011;1353;51.386;7.028;2022-07-05T02:36:10;6.17;;;4.90;;
2686;SDS011;1353;51.386;7.028;2022-07-05T02:38:38;4.90;;;4.40;;
2686;SDS011;1353;51.386;7.028;2022-07-05T02:41:06;5.10;;;4.80;;
2686;SDS011;1353;51.386;7.028;2022-07-05T02:43:34;5.47;;;4.50;;
2686;SDS011;1353;51.386;7.028;2022-07-05T02:46:02;4.50;;;4.10;;
2686;SDS011;1353;51.386;7.028;2022-07-05T02:48:30;4.97;;;4.57;;
2686;SDS011;1353;51.386;7.028;2022-07-05T02:50:59;4.80;;;4.30;;
2686;SDS011;1353;51.386;7.028;2022-07-05T02:53:26;8.00;;;5.33;;
2686;SDS011;1353;51.386;7.028;2022-07-05T02:55:53;5.33;;;4.83;;
2686;SDS011;1353;51.386;7.028;2022-07-05T02:58:20;8.00;;;4.73;;
2686;SDS011;1353;51.386;7.028;2022-07-05T03:00:47;4.70;;;4.27;;
2686;SDS011;1353;51.386;7.028;2022-07-05T03:03:15;5.87;;;4.60;;
2686;SDS011;1353;51.386;7.028;2022-07-05T03:05:42;5.83;;;5.33;;
2686;SDS011;1353;51.386;7.028;2022-07-05T03:08:10;6.17;;;5.57;;
2686;SDS011;1353;51.386;7.028;2022-07-05T03:10:37;5.90;;;5.30;;
2686;SDS011;1353;51.386;7.028;2022-07-05T03:13:04;5.63;;;5.13;;
2686;SDS011;1353;51.386;7.028;2022-07-05T03:15:31;6.03;;;5.53;;
2686;SDS011;1353;51.386;7.028;2022-07-05T03:17:58;5.93;;;4.80;;
2686;SDS011;1353;51.386;7.028;2022-07-05T03:20:25;5.60;;;5.10;;
2686;SDS011;1353;51.386;7.028;2022-07-05T03:22:51;3.93;;;3.73;;
2686;SDS011;1353;51.386;7.028;2022-07-05T03:25:19;5.57;;;4.80;;
2686;SDS011;1353;51.386;7.028;2022-07-05T03:27:46;5.20;;;4.80;;
2686;SDS011;1353;51.386;7.028;2022-07-05T03:30:13;4.57;;;4.17;;
2686;SDS011;1353;51.386;7.028;2022-07-05T03:32:40;5.80;;;4.83;;
2686;SDS011;1353;51.386;7.028;2022-07-05T03:35:07;4.37;;;4.00;;
2686;SDS011;1353;51.386;7.028;2022-07-05T03:37:34;4.80;;;4.40;;
2686;SDS011;1353;51.386;7.028;2022-07-05T03:40:01;4.47;;;4.07;;
2686;SDS011;1353;51.386;7.028;2022-07-05T03:42:29;5.20;;;4.70;;
2686;SDS011;1353;51.386;7.028;2022-07-05T03:44:57;4.53;;;4.20;;
2686;SDS011;1353;51.386;7.028;2022-07-05T03:47:23;4.50;;;4.10;;
2686;SDS011;1353;51.386;7.028;2022-07-05T03:49:50;4.73;;;4.40;;
2686;SDS011;1353;51.386;7.028;2022-07-05T03:52:17;8.53;;;5.60;;
2686;SDS011;1353;51.386;7.028;2022-07-05T03:54:43;5.03;;;4.40;;
2686;SDS011;1353;51.386;7.028;2022-07-05T03:57:10;5.07;;;4.50;;
2686;SDS011;1353;51.386;7.028;2022-07-05T03:59:39;5.63;;;3.60;;
2686;SDS011;1353;51.386;7.028;2022-07-05T04:02:06;5.57;;;4.23;;
2686;SDS011;1353;51.386;7.028;2022-07-05T04:04:33;4.57;;;4.10;;
2686;SDS011;1353;51.386;7.028;2022-07-05T04:06:59;4.50;;;4.10;;
2686;SDS011;1353;51.386;7.028;2022-07-05T04:09:26;6.60;;;4.07;;
2686;SDS011;1353;51.386;7.028;2022-07-05T04:11:53;4.43;;;4.13;;
2686;SDS011;1353;51.386;7.028;2022-07-05T04:14:20;4.47;;;4.07;;
2686;SDS011;1353;51.386;7.028;2022-07-05T04:16:48;3.73;;;3.53;;
2686;SDS011;1353;51.386;7.028;2022-07-05T04:19:15;3.97;;;3.50;;
2686;SDS011;1353;51.386;7.028;2022-07-05T04:21:42;4.20;;;3.17;;
2686;SDS011;1353;51.386;7.028;2022-07-05T04:24:08;5.50;;;3.33;;
2686;SDS011;1353;51.386;7.028;2022-07-05T04:26:35;4.73;;;3.80;;
2686;SDS011;1353;51.386;7.028;2022-07-05T04:29:02;3.37;;;2.83;;
2686;SDS011;1353;51.386;7.028;2022-07-05T04:31:29;2.80;;;2.60;;
2686;SDS011;1353;51.386;7.028;2022-07-05T04:33:57;2.70;;;2.50;;
2686;SDS011;1353;51.386;7.028;2022-07-05T04:36:24;3.00;;;2.80;;
2686;SDS011;1353;51.386;7.028;2022-07-05T04:38:51;7.03;;;2.83;;
2686;SDS011;1353;51.386;7.028;2022-07-05T04:41:17;3.97;;;2.73;;
2686;SDS011;1353;51.386;7.028;2022-07-05T04:43:44;4.20;;;2.90;;
2686;SDS011;1353;51.386;7.028;2022-07-05T04:46:11;3.33;;;2.50;;
2686;SDS011;1353;51.386;7.028;2022-07-05T04:48:38;4.90;;;3.23;;
2686;SDS011;1353;51.386;7.028;2022-07-05T04:51:06;2.97;;;2.67;;
2686;SDS011;1353;51.386;7.028;2022-07-05T04:53:33;3.87;;;3.57;;
2686;SDS011;1353;51.386;7.028;2022-07-05T04:55:59;3.80;;;3.43;;
2686;SDS011;1353;51.386;7.028;2022-07-05T04:58:26;4.13;;;3.10;;
2686;SDS011;1353;51.386;7.028;2022-07-05T05:00:53;5.67;;;3.37;;
2686;SDS011;1353;51.386;7.028;2022-07-05T05:03:20;2.97;;;2.70;;
2686;SDS011;1353;51.386;7.028;2022-07-05T05:05:47;3.30;;;3.00;;
2686;SDS011;1353;51.386;7.028;2022-07-05T05:08:15;4.50;;;2.70;;
2686;SDS011;1353;51.386;7.028;2022-07-05T05:10:42;3.23;;;3.03;;
2686;SDS011;1353;51.386;7.028;2022-07-05T05:13:09;3.13;;;2.90;;
2686;SDS011;1353;51.386;7.028;2022-07-05T05:15:35;3.20;;;2.90;;
2686;SDS011;1353;51.386;7.028;2022-07-05T05:18:02;2.73;;;2.53;;
2686;SDS011;1353;51.386;7.028;2022-07-05T05:20:29;5.87;;;3.03;;
2686;SDS011;1353;51.386;7.028;2022-07-05T05:22:56;3.33;;;3.13;;
2686;SDS011;1353;51.386;7.028;2022-07-05T05:25:24;3.53;;;3.07;;
2686;SDS011;1353;51.386;7.028;2022-07-05T05:27:52;2.60;;;2.47;;
2686;SDS011;1353;51.386;7.028;2022-07-05T05:30:19;5.17;;;3.13;;
2686;SDS011;1353;51.386;7.028;2022-07-05T05:32:46;4.17;;;3.13;;
2686;SDS011;1353;51.386;7.028;2022-07-05T05:35:13;5.43;;;3.70;;
2686;SDS011;1353;51.386;7.028;2022-07-05T05:37:44;3.27;;;3.00;;
2686;SDS011;1353;51.386;7.028;2022-07-05T05:40:12;6.20;;;4.00;;
2686;SDS011;1353;51.386;7.028;2022-07-05T05:42:40;4.87;;;3.40;;
2686;SDS011;1353;51.386;7.028;2022-07-05T05:45:07;4.73;;;3.40;;
2686;SDS011;1353;51.386;7.028;2022-07-05T05:47:42;4.27;;;3.87;;
2686;SDS011;1353;51.386;7.028;2022-07-05T05:50:12;5.90;;;3.53;;
2686;SDS011;1353;51.386;7.028;2022-07-05T05:52:39;6.20;;;3.47;;
2686;SDS011;1353;51.386;7.028;2022-07-05T05:55:06;4.10;;;3.70;;
2686;SDS011;1353;51.386;7.028;2022-07-05T05:57:33;3.50;;;3.20;;
2686;SDS011;1353;51.386;7.028;2022-07-05T06:00:02;4.93;;;3.40;;
2686;SDS011;1353;51.386;7.028;2022-07-05T06:02:30;4.50;;;3.70;;
2686;SDS011;1353;51.386;7.028;2022-07-05T06:04:57;2.90;;;2.70;;
2686;SDS011;1353;51.386;7.028;2022-07-05T06:07:24;4.53;;;3.33;;
2686;SDS011;1353;51.386;7.028;2022-07-05T06:09:51;4.10;;;3.30;;
2686;SDS011;1353;51.386;7.028;2022-07-05T06:12:17;2.77;;;2.57;;
2686;SDS011;1353;51.386;7.028;2022-07-05T06:14:44;2.63;;;2.43;;
2686;SDS011;1353;51.386;7.028;2022-07-05T06:17:12;3.00;;;2.80;;
2686;SDS011;1353;51.386;7.028;2022-07-05T06:19:39;3.87;;;2.43;;
2686;SDS011;1353;51.386;7.028;2022-07-05T06:22:06;3.30;;;2.60;;
2686;SDS011;1353;51.386;7.028;2022-07-05T06:24:32;2.03;;;1.93;;
2686;SDS011;1353;51.386;7.028;2022-07-05T06:26:59;2.03;;;1.60;;
2686;SDS011;1353;51.386;7.028;2022-07-05T06:29:26;4.33;;;2.03;;
2686;SDS011;1353;51.386;7.028;2022-07-05T06:31:53;2.00;;;1.80;;
2686;SDS011;1353;51.386;7.028;2022-07-05T06:34:21;1.93;;;1.80;;
2686;SDS011;1353;51.386;7.028;2022-07-05T06:36:47;2.53;;;1.50;;
2686;SDS011;1353;51.386;7.028;2022-07-05T06:39:14;1.70;;;1.60;;
2686;SDS011;1353;51.386;7.028;2022-07-05T06:41:41;2.67;;;1.97;;
2686;SDS011;1353;51.386;7.028;2022-07-05T06:44:07;2.20;;;1.50;;
2686;SDS011;1353;51.386;7.028;2022-07-05T06:46:34;1.80;;;1.70;;
2686;SDS011;1353;51.386;7.028;2022-07-05T06:49:01;1.93;;;1.40;;
2686;SDS011;1353;51.386;7.028;2022-07-05T06:51:29;2.87;;;1.90;;
2686;SDS011;1353;51.386;7.028;2022-07-05T06:53:55;1.87;;;1.77;;
2686;SDS011;1353;51.386;7.028;2022-07-05T06:56:22;4.03;;;1.97;;
2686;SDS011;1353;51.386;7.028;2022-07-05T06:58:49;3.40;;;2.00;;
2686;SDS011;1353;51.386;7.028;2022-07-05T07:01:16;2.07;;;1.87;;
2686;SDS011;1353;51.386;7.028;2022-07-05T07:03:42;3.87;;;2.60;;
2686;SDS011;1353;51.386;7.028;2022-07-05T07:06:09;3.07;;;2.50;;
2686;SDS011;1353;51.386;7.028;2022-07-05T07:08:37;5.53;;;2.47;;
2686;SDS011;1353;51.386;7.028;2022-07-05T07:11:22;2.57;;;2.37;;
2686;SDS011;1353;51.386;7.028;2022-07-05T07:13:48;3.10;;;2.90;;
2686;SDS011;1353;51.386;7.028;2022-07-05T07:16:15;2.60;;;2.47;;
2686;SDS011;1353;51.386;7.028;2022-07-05T07:18:42;4.57;;;2.90;;
2686;SDS011;1353;51.386;7.028;2022-07-05T07:21:09;2.37;;;2.17;;
2686;SDS011;1353;51.386;7.028;2022-07-05T07:23:37;3.87;;;2.00;;
2686;SDS011;1353;51.386;7.028;2022-07-05T07:26:04;2.70;;;2.50;;
2686;SDS011;1353;51.386;7.028;2022-07-05T07:28:31;2.77;;;2.57;;
2686;SDS011;1353;51.386;7.028;2022-07-05T07:30:57;4.10;;;2.17;;
2686;SDS011;1353;51.386;7.028;2022-07-05T07:33:24;4.20;;;2.50;;
2686;SDS011;1353;51.386;7.028;2022-07-05T07:35:51;1.93;;;1.77;;
2686;SDS011;1353;51.386;7.028;2022-07-05T07:38:18;3.63;;;2.20;;
2686;SDS011;1353;51.386;7.028;2022-07-05T07:40:46;2.33;;;2.10;;
2686;SDS011;1353;51.386;7.028;2022-07-05T07:43:13;4.00;;;2.43;;
2686;SDS011;1353;51.386;7.028;2022-07-05T07:45:40;2.33;;;1.77;;
2686;SDS011;1353;51.386;7.028;2022-07-05T07:48:06;2.80;;;1.70;;
2686;SDS011;1353;51.386;7.028;2022-07-05T07:50:33;2.60;;;1.33;;
2686;SDS011;1353;51.386;7.028;2022-07-05T07:53:00;1.60;;;1.50;;
2686;SDS011;1353;51.386;7.028;2022-07-05T07:55:26;1.80;;;1.70;;
2686;SDS011;1353;51.386;7.028;2022-07-05T07:57:55;3.77;;;1.63;;
2686;SDS011;1353;51.386;7.028;2022-07-05T08:00:22;5.23;;;1.67;;
2686;SDS011;1353;51.386;7.028;2022-07-05T08:02:49;2.10;;;1.20;;
2686;SDS011;1353;51.386;7.028;2022-07-05T08:05:16;3.90;;;1.87;;
2686;SDS011;1353;51.386;7.028;2022-07-05T08:07:42;1.37;;;1.27;;
2686;SDS011;1353;51.386;7.028;2022-07-05T08:10:09;3.93;;;1.93;;
2686;SDS011;1353;51.386;7.028;2022-07-05T08:12:36;2.13;;;1.83;;
2686;SDS011;1353;51.386;7.028;2022-07-05T08:15:05;6.43;;;1.97;;
2686;SDS011;1353;51.386;7.028;2022-07-05T08:17:33;4.60;;;1.60;;
2686;SDS011;1353;51.386;7.028;2022-07-05T08:20:00;4.90;;;2.93;;
2686;SDS011;1353;51.386;7.028;2022-07-05T08:22:44;3.53;;;2.30;;
2686;SDS011;1353;51.386;7.028;2022-07-05T08:25:11;2.63;;;1.70;;
2686;SDS011;1353;51.386;7.028;2022-07-05T08:27:39;3.20;;;2.47;;
2686;SDS011;1353;51.386;7.028;2022-07-05T08:30:08;2.90;;;2.03;;
2686;SDS011;1353;51.386;7.028;2022-07-05T08:32:36;2.27;;;2.07;;
2686;SDS011;1353;51.386;7.028;2022-07-05T08:35:03;2.93;;;2.63;;
2686;SDS011;1353;51.386;7.028;2022-07-05T08:37:30;4.33;;;2.60;;
2686;SDS011;1353;51.386;7.028;2022-07-05T08:39:57;3.60;;;2.90;;
2686;SDS011;1353;51.386;7.028;2022-07-05T08:42:24;3.30;;;2.30;;
2686;SDS011;1353;51.386;7.028;2022-07-05T08:44:51;4.43;;;2.70;;
2686;SDS011;1353;51.386;7.028;2022-07-05T08:47:22;5.47;;;2.20;;
2686;SDS011;1353;51.386;7.028;2022-07-05T08:49:49;2.17;;;2.00;;
2686;SDS011;1353;51.386;7.028;2022-07-05T08:52:17;3.60;;;2.27;;
2686;SDS011;1353;51.386;7.028;2022-07-05T08:54:44;2.90;;;2.60;;
2686;SDS011;1353;51.386;7.028;2022-07-05T08:57:12;2.83;;;2.33;;
2686;SDS011;1353;51.386;7.028;2022-07-05T08:59:39;3.33;;;2.23;;
2686;SDS011;1353;51.386;7.028;2022-07-05T09:02:07;8.23;;;2.60;;
2686;SDS011;1353;51.386;7.028;2022-07-05T09:04:41;4.70;;;1.80;;
2686;SDS011;1353;51.386;7.028;2022-07-05T09:07:11;2.87;;;2.00;;
2686;SDS011;1353;51.386;7.028;2022-07-05T09:09:42;2.23;;;2.03;;
2686;SDS011;1353;51.386;7.028;2022-07-05T09:12:11;3.40;;;2.10;;
2686;SDS011;1353;51.386;7.028;2022-07-05T09:14:39;2.67;;;2.20;;
2686;SDS011;1353;51.386;7.028;2022-07-05T09:17:06;2.10;;;2.00;;
2686;SDS011;1353;51.386;7.028;2022-07-05T09:19:33;2.40;;;2.20;;
2686;SDS011;1353;51.386;7.028;2022-07-05T09:22:01;3.20;;;2.17;;
2686;SDS011;1353;51.386;7.028;2022-07-05T09:24:30;2.43;;;1.97;;
2686;SDS011;1353;51.386;7.028;2022-07-05T09:27:04;3.23;;;1.87;;
2686;SDS011;1353;51.386;7.028;2022-07-05T09:29:31;1.43;;;1.33;;
2686;SDS011;1353;51.386;7.028;2022-07-05T09:31:58;2.00;;;1.80;;
2686;SDS011;1353;51.386;7.028;2022-07-05T09:34:25;5.37;;;1.80;;
2686;SDS011;1353;51.386;7.028;2022-07-05T09:36:55;2.37;;;1.90;;
2686;SDS011;1353;51.386;7.028;2022-07-05T09:39:38;2.87;;;1.87;;
2686;SDS011;1353;51.386;7.028;2022-07-05T09:42:09;3.97;;;1.60;;
2686;SDS011;1353;51.386;7.028;2022-07-05T09:44:36;3.97;;;2.00;;
2686;SDS011;1353;51.386;7.028;2022-07-05T09:47:06;2.40;;;1.80;;
2686;SDS011;1353;51.386;7.028;2022-07-05T09:49:35;2.70;;;1.30;;
2686;SDS011;1353;51.386;7.028;2022-07-05T09:52:02;2.30;;;1.33;;
2686;SDS011;1353;51.386;7.028;2022-07-05T09:54:29;1.57;;;1.30;;
2686;SDS011;1353;51.386;7.028;2022-07-05T09:56:57;2.23;;;1.20;;
2686;SDS011;1353;51.386;7.028;2022-07-05T09:59:24;1.97;;;1.27;;
2686;SDS011;1353;51.386;7.028;2022-07-05T10:01:51;3.47;;;1.60;;
2686;SDS011;1353;51.386;7.028;2022-07-05T10:04:18;1.07;;;0.97;;
2686;SDS011;1353;51.386;7.028;2022-07-05T10:06:44;1.30;;;1.20;;
2686;SDS011;1353;51.386;7.028;2022-07-05T10:09:12;1.93;;;1.40;;
2686;SDS011;1353;51.386;7.028;2022-07-05T10:11:40;1.23;;;1.13;;
2686;SDS011;1353;51.386;7.028;2022-07-05T10:14:11;1.40;;;1.30;;
2686;SDS011;1353;51.386;7.028;2022-07-05T10:16:41;2.50;;;1.20;;
2686;SDS011;1353;51.386;7.028;2022-07-05T10:19:15;3.37;;;1.37;;
2686;SDS011;1353;51.386;7.028;2022-07-05T10:21:45;2.70;;;1.23;;
2686;SDS011;1353;51.386;7.028;2022-07-05T10:24:13;2.17;;;1.80;;
2686;SDS011;1353;51.386;7.028;2022-07-05T10:26:42;1.60;;;1.50;;
2686;SDS011;1353;51.386;7.028;2022-07-05T10:29:11;1.40;;;1.30;;
2686;SDS011;1353;51.386;7.028;2022-07-05T10:31:39;2.30;;;1.27;;
2686;SDS011;1353;51.386;7.028;2022-07-05T10:34:05;1.63;;;1.50;;
2686;SDS011;1353;51.386;7.028;2022-07-05T10:36:36;4.60;;;1.30;;
2686;SDS011;1353;51.386;7.028;2022-07-05T10:39:05;1.40;;;1.30;;
2686;SDS011;1353;51.386;7.028;2022-07-05T10:41:33;2.60;;;1.33;;
2686;SDS011;1353;51.386;7.028;2022-07-05T10:44:01;3.23;;;1.57;;
2686;SDS011;1353;51.386;7.028;2022-07-05T10:46:33;1.40;;;1.07;;
2686;SDS011;1353;51.386;7.028;2022-07-05T10:51:46;1.40;;;1.30;;
2686;SDS011;1353;51.386;7.028;2022-07-05T10:54:13;1.90;;;1.47;;
2686;SDS011;1353;51.386;7.028;2022-07-05T10:56:40;2.30;;;1.57;;
2686;SDS011;1353;51.386;7.028;2022-07-05T10:59:08;6.93;;;1.50;;
2686;SDS011;1353;51.386;7.028;2022-07-05T11:01:41;1.40;;;1.30;;
2686;SDS011;1353;51.386;7.028;2022-07-05T11:04:18;1.57;;;1.40;;
2686;SDS011;1353;51.386;7.028;2022-07-05T11:06:59;1.67;;;1.50;;
2686;SDS011;1353;51.386;7.028;2022-07-05T11:09:26;1.70;;;1.53;;
2686;SDS011;1353;51.386;7.028;2022-07-05T11:12:01;1.70;;;1.60;;
2686;SDS011;1353;51.386;7.028;2022-07-05T11:14:30;2.23;;;1.80;;
2686;SDS011;1353;51.386;7.028;2022-07-05T11:17:22;4.10;;;1.40;;
2686;SDS011;1353;51.386;7.028;2022-07-05T11:20:06;1.77;;;1.30;;
2686;SDS011;1353;51.386;7.028;2022-07-05T11:22:35;1.23;;;1.13;;
2686;SDS011;1353;51.386;7.028;2022-07-05T11:25:03;2.10;;;1.53;;
2686;SDS011;1353;51.386;7.028;2022-07-05T11:27:32;1.77;;;1.67;;
2686;SDS011;1353;51.386;7.028;2022-07-05T11:30:00;1.70;;;1.60;;
2686;SDS011;1353;51.386;7.028;2022-07-05T11:32:36;1.73;;;1.63;;
2686;SDS011;1353;51.386;7.028;2022-07-05T11:35:13;2.63;;;1.93;;
2686;SDS011;1353;51.386;7.028;2022-07-05T11:37:56;1.93;;;1.80;;
2686;SDS011;1353;51.386;7.028;2022-07-05T11:40:26;2.80;;;1.90;;
2686;SDS011;1353;51.386;7.028;2022-07-05T11:42:54;1.83;;;1.73;;
2686;SDS011;1353;51.386;7.028;2022-07-05T11:45:21;2.60;;;1.60;;
2686;SDS011;1353;51.386;7.028;2022-07-05T11:47:50;5.70;;;1.90;;
2686;SDS011;1353;51.386;7.028;2022-07-05T11:50:24;2.70;;;2.40;;
2686;SDS011;1353;51.386;7.028;2022-07-05T11:52:55;1.60;;;1.50;;
2686;SDS011;1353;51.386;7.028;2022-07-05T11:55:23;2.43;;;2.17;;
2686;SDS011;1353;51.386;7.028;2022-07-05T11:57:52;3.27;;;2.10;;
2686;SDS011;1353;51.386;7.028;2022-07-05T12:00:26;2.70;;;1.43;;
2686;SDS011;1353;51.386;7.028;2022-07-05T12:02:55;1.80;;;1.70;;
2686;SDS011;1353;51.386;7.028;2022-07-05T12:05:22;2.10;;;1.50;;
2686;SDS011;1353;51.386;7.028;2022-07-05T12:07:54;1.70;;;1.57;;
2686;SDS011;1353;51.386;7.028;2022-07-05T12:10:21;1.40;;;1.30;;
2686;SDS011;1353;51.386;7.028;2022-07-05T12:13:05;2.03;;;1.60;;
2686;SDS011;1353;51.386;7.028;2022-07-05T12:15:33;1.30;;;1.20;;
2686;SDS011;1353;51.386;7.028;2022-07-05T12:18:03;1.43;;;1.33;;
2686;SDS011;1353;51.386;7.028;2022-07-05T12:20:32;2.00;;;1.73;;
2686;SDS011;1353;51.386;7.028;2022-07-05T12:23:00;2.17;;;1.20;;
2686;SDS011;1353;51.386;7.028;2022-07-05T12:25:27;2.57;;;1.30;;
2686;SDS011;1353;51.386;7.028;2022-07-05T12:27:57;1.87;;;1.60;;
2686;SDS011;1353;51.386;7.028;2022-07-05T12:30:24;1.87;;;1.20;;
2686;SDS011;1353;51.386;7.028;2022-07-05T12:32:58;1.90;;;1.80;;
2686;SDS011;1353;51.386;7.028;2022-07-05T12:35:27;2.10;;;1.37;;
2686;SDS011;1353;51.386;7.028;2022-07-05T12:37:55;1.53;;;1.10;;
2686;SDS011;1353;51.386;7.028;2022-07-05T12:40:22;2.07;;;1.27;;
2686;SDS011;1353;51.386;7.028;2022-07-05T12:42:59;1.83;;;1.50;;
2686;SDS011;1353;51.386;7.028;2022-07-05T12:45:30;1.60;;;1.50;;
2686;SDS011;1353;51.386;7.028;2022-07-05T12:47:57;2.60;;;1.20;;
2686;SDS011;1353;51.386;7.028;2022-07-05T12:50:26;2.20;;;1.10;;
2686;SDS011;1353;51.386;7.028;2022-07-05T12:52:58;2.00;;;1.40;;
2686;SDS011;1353;51.386;7.028;2022-07-05T12:55:47;2.70;;;1.40;;
2686;SDS011;1353;51.386;7.028;2022-07-05T12:58:31;1.20;;;1.10;;
2686;SDS011;1353;51.386;7.028;2022-07-05T13:00:58;1.53;;;1.40;;
2686;SDS011;1353;51.386;7.028;2022-07-05T13:03:25;2.83;;;1.30;;
2686;SDS011;1353;51.386;7.028;2022-07-05T13:06:02;1.33;;;1.17;;
2686;SDS011;1353;51.386;7.028;2022-07-05T13:08:29;3.27;;;1.30;;
2686;SDS011;1353;51.386;7.028;2022-07-05T13:10:56;1.43;;;1.23;;
2686;SDS011;1353;51.386;7.028;2022-07-05T13:13:23;2.33;;;1.30;;
2686;SDS011;1353;51.386;7.028;2022-07-05T13:15:50;3.53;;;1.90;;
2686;SDS011;1353;51.386;7.028;2022-07-05T13:18:23;2.03;;;1.43;;
2686;SDS011;1353;51.386;7.028;2022-07-05T13:20:51;2.57;;;1.17;;
2686;SDS011;1353;51.386;7.028;2022-07-05T13:23:19;2.10;;;1.20;;
2686;SDS011;1353;51.386;7.028;2022-07-05T13:25:46;2.70;;;1.57;;
2686;SDS011;1353;51.386;7.028;2022-07-05T13:28:12;2.17;;;1.57;;
2686;SDS011;1353;51.386;7.028;2022-07-05T13:30:39;2.20;;;1.90;;
2686;SDS011;1353;51.386;7.028;2022-07-05T13:33:06;3.10;;;2.10;;
2686;SDS011;1353;51.386;7.028;2022-07-05T13:35:33;3.27;;;1.63;;
2686;SDS011;1353;51.386;7.028;2022-07-05T13:37:59;3.43;;;1.70;;
2686;SDS011;1353;51.386;7.028;2022-07-05T13:40:27;2.03;;;1.70;;
2686;SDS011;1353;51.386;7.028;2022-07-05T13:42:54;1.97;;;1.70;;
2686;SDS011;1353;51.386;7.028;2022-07-05T13:45:21;1.80;;;1.70;;
2686;SDS011;1353;51.386;7.028;2022-07-05T13:47:48;6.23;;;1.63;;
2686;SDS011;1353;51.386;7.028;2022-07-05T13:50:14;2.77;;;2.50;;
2686;SDS011;1353;51.386;7.028;2022-07-05T13:53:00;1.80;;;1.70;;
2686;SDS011;1353;51.386;7.028;2022-07-05T13:55:28;2.10;;;1.90;;
2686;SDS011;1353;51.386;7.028;2022-07-05T13:57:55;2.10;;;2.00;;
2686;SDS011;1353;51.386;7.028;2022-07-05T14:00:23;2.03;;;1.80;;
2686;SDS011;1353;51.386;7.028;2022-07-05T14:02:50;2.13;;;1.60;;
2686;SDS011;1353;51.386;7.028;2022-07-05T14:05:17;3.30;;;1.90;;
2686;SDS011;1353;51.386;7.028;2022-07-05T14:07:45;3.33;;;2.43;;
2686;SDS011;1353;51.386;7.028;2022-07-05T14:10:12;2.30;;;2.10;;
2686;SDS011;1353;51.386;7.028;2022-07-05T14:12:41;3.30;;;2.50;;
2686;SDS011;1353;51.386;7.028;2022-07-05T14:15:08;3.77;;;2.20;;
2686;SDS011;1353;51.386;7.028;2022-07-05T14:17:34;2.30;;;1.90;;
2686;SDS011;1353;51.386;7.028;2022-07-05T14:20:01;2.30;;;2.10;;
2686;SDS011;1353;51.386;7.028;2022-07-05T14:22:28;2.37;;;2.17;;
2686;SDS011;1353;51.386;7.028;2022-07-05T14:24:55;2.60;;;2.00;;
2686;SDS011;1353;51.386;7.028;2022-07-05T14:27:22;4.60;;;2.53;;
2686;SDS011;1353;51.386;7.028;2022-07-05T14:29:50;2.57;;;2.37;;
2686;SDS011;1353;51.386;7.028;2022-07-05T14:32:17;3.77;;;3.57;;
2686;SDS011;1353;51.386;7.028;2022-07-05T14:34:43;2.40;;;2.30;;
2686;SDS011;1353;51.386;7.028;2022-07-05T14:37:10;2.80;;;2.50;;
2686;SDS011;1353;51.386;7.028;2022-07-05T14:39:37;2.70;;;2.50;;
2686;SDS011;1353;51.386;7.028;2022-07-05T14:42:04;3.87;;;2.47;;
2686;SDS011;1353;51.386;7.028;2022-07-05T14:44:31;2.97;;;2.77;;
2686;SDS011;1353;51.386;7.028;2022-07-05T14:46:59;3.30;;;3.00;;
2686;SDS011;1353;51.386;7.028;2022-07-05T14:49:25;6.57;;;3.70;;
2686;SDS011;1353;51.386;7.028;2022-07-05T14:51:52;6.97;;;4.30;;
2686;SDS011;1353;51.386;7.028;2022-07-05T14:54:19;3.93;;;3.47;;
2686;SDS011;1353;51.386;7.028;2022-07-05T14:56:46;7.20;;;3.43;;
2686;SDS011;1353;51.386;7.028;2022-07-05T14:59:13;5.13;;;3.40;;
2686;SDS011;1353;51.386;7.028;2022-07-05T15:01:39;3.97;;;3.67;;
2686;SDS011;1353;51.386;7.028;2022-07-05T15:04:07;3.70;;;3.23;;
2686;SDS011;1353;51.386;7.028;2022-07-05T15:06:34;6.10;;;3.37;;
2686;SDS011;1353;51.386;7.028;2022-07-05T15:09:04;8.40;;;2.90;;
2686;SDS011;1353;51.386;7.028;2022-07-05T15:11:31;4.27;;;3.87;;
2686;SDS011;1353;51.386;7.028;2022-07-05T15:13:58;3.17;;;2.90;;
2686;SDS011;1353;51.386;7.028;2022-07-05T15:16:27;3.50;;;3.30;;
2686;SDS011;1353;51.386;7.028;2022-07-05T15:18:53;6.30;;;3.87;;
2686;SDS011;1353;51.386;7.028;2022-07-05T15:21:22;4.63;;;4.23;;
2686;SDS011;1353;51.386;7.028;2022-07-05T15:23:48;4.37;;;3.63;;